Van Meter, Iowa
Current Conditions -  °F | °C
As of 3:54 AM on Saturday 29 Nov 2014 (Local Time) from KDSM Reporting Station
Clear Clear  
Wind Chill: 27°   Ceiling: Unl
Heat Index: 35°   Visibility: 10mi
Dew Point: 30°   Wind: 10mph
Humidity: 82%   Direction: 180°S
Pressure: 29.57"   Gusts: NA
Location:  41.53°N, 93.95°W
Report Text: KDSM 290954Z 18009KT 10SM CLR 02/M01 A2957 RMK AO2 SLP019 T00171011
Loading
Personal Weather Stations






























Interactive Weather Map New forecast layout! Learn more

10-Day Weather Forecast

Advertisements
Track Severe Weather on mobile